sensor_id;sensor_type;location;lat;lon;timestamp;pressure;altitude;pressure_sealevel;temperature;humidity
6134;BME280;3098;42.678;23.364;2024-03-02T00:01:17;94425.41;;;6.42;79.35
6134;BME280;3098;42.678;23.364;2024-03-02T00:03:42;94431.06;;;6.50;78.64
6134;BME280;3098;42.678;23.364;2024-03-02T00:06:11;94446.81;;;6.50;78.91
6134;BME280;3098;42.678;23.364;2024-03-02T00:08:37;94444.78;;;6.47;78.51
6134;BME280;3098;42.678;23.364;2024-03-02T00:11:03;94432.50;;;6.42;79.16
6134;BME280;3098;42.678;23.364;2024-03-02T00:13:29;94454.09;;;6.53;79.14
6134;BME280;3098;42.678;23.364;2024-03-02T00:15:57;94444.97;;;6.50;79.77
6134;BME280;3098;42.678;23.364;2024-03-02T00:18:30;94455.38;;;6.55;78.86
6134;BME280;3098;42.678;23.364;2024-03-02T00:20:57;94450.22;;;6.50;79.29
6134;BME280;3098;42.678;23.364;2024-03-02T00:23:23;94446.69;;;6.41;79.10
6134;BME280;3098;42.678;23.364;2024-03-02T00:25:54;94434.06;;;6.43;79.22
6134;BME280;3098;42.678;23.364;2024-03-02T00:28:20;94434.06;;;6.43;79.33
6134;BME280;3098;42.678;23.364;2024-03-02T00:30:59;94451.25;;;6.49;78.98
6134;BME280;3098;42.678;23.364;2024-03-02T00:33:27;94432.88;;;6.49;78.73
6134;BME280;3098;42.678;23.364;2024-03-02T00:35:56;94430.19;;;6.54;79.00
6134;BME280;3098;42.678;23.364;2024-03-02T00:38:22;94433.91;;;6.53;79.12
6134;BME280;3098;42.678;23.364;2024-03-02T00:40:48;94433.50;;;6.46;79.32
6134;BME280;3098;42.678;23.364;2024-03-02T00:46:00;94429.22;;;6.50;79.59
6134;BME280;3098;42.678;23.364;2024-03-02T00:48:26;94434.16;;;6.52;79.64
6134;BME280;3098;42.678;23.364;2024-03-02T00:50:52;94418.41;;;6.52;78.93
6134;BME280;3098;42.678;23.364;2024-03-02T00:53:23;94417.53;;;6.56;77.93
6134;BME280;3098;42.678;23.364;2024-03-02T00:55:52;94429.03;;;6.60;78.04
6134;BME280;3098;42.678;23.364;2024-03-02T00:58:18;94417.97;;;6.63;78.11
6134;BME280;3098;42.678;23.364;2024-03-02T01:00:43;94421.06;;;6.65;78.41
6134;BME280;3098;42.678;23.364;2024-03-02T01:03:09;94415.34;;;6.63;78.07
6134;BME280;3098;42.678;23.364;2024-03-02T01:05:36;94417.16;;;6.63;77.54
6134;BME280;3098;42.678;23.364;2024-03-02T01:08:01;94415.81;;;6.65;77.82
6134;BME280;3098;42.678;23.364;2024-03-02T01:10:27;94418.16;;;6.67;77.53
6134;BME280;3098;42.678;23.364;2024-03-02T01:12:53;94424.00;;;6.78;77.19
6134;BME280;3098;42.678;23.364;2024-03-02T01:15:18;94423.00;;;6.74;77.47
6134;BME280;3098;42.678;23.364;2024-03-02T01:17:44;94415.13;;;6.74;77.69
6134;BME280;3098;42.678;23.364;2024-03-02T01:20:10;94413.31;;;6.74;77.86
6134;BME280;3098;42.678;23.364;2024-03-02T01:22:36;94407.06;;;6.70;77.56
6134;BME280;3098;42.678;23.364;2024-03-02T01:25:02;94415.81;;;6.79;77.38
6134;BME280;3098;42.678;23.364;2024-03-02T01:27:28;94409.41;;;6.72;78.21
6134;BME280;3098;42.678;23.364;2024-03-02T01:29:53;94404.44;;;6.70;77.67
6134;BME280;3098;42.678;23.364;2024-03-02T01:32:20;94409.88;;;6.74;77.82
6134;BME280;3098;42.678;23.364;2024-03-02T01:34:45;94400.44;;;6.73;77.95
6134;BME280;3098;42.678;23.364;2024-03-02T01:37:11;94396.53;;;6.70;78.74
6134;BME280;3098;42.678;23.364;2024-03-02T01:39:36;94400.44;;;6.73;77.49
6134;BME280;3098;42.678;23.364;2024-03-02T01:42:02;94392.97;;;6.80;77.62
6134;BME280;3098;42.678;23.364;2024-03-02T01:44:28;94397.75;;;6.78;78.32
6134;BME280;3098;42.678;23.364;2024-03-02T01:46:53;94391.50;;;6.74;78.12
6134;BME280;3098;42.678;23.364;2024-03-02T01:49:19;94393.72;;;6.66;79.04
6134;BME280;3098;42.678;23.364;2024-03-02T01:51:45;94389.66;;;6.60;79.38
6134;BME280;3098;42.678;23.364;2024-03-02T01:54:11;94380.50;;;6.58;79.90
6134;BME280;3098;42.678;23.364;2024-03-02T01:56:37;94377.50;;;6.51;80.23
6134;BME280;3098;42.678;23.364;2024-03-02T01:59:03;94390.91;;;6.49;79.99
6134;BME280;3098;42.678;23.364;2024-03-02T02:01:28;94391.19;;;6.48;80.39
6134;BME280;3098;42.678;23.364;2024-03-02T02:03:54;94387.31;;;6.45;80.17
6134;BME280;3098;42.678;23.364;2024-03-02T02:06:19;94392.47;;;6.50;80.67
6134;BME280;3098;42.678;23.364;2024-03-02T02:08:45;94392.28;;;6.47;80.10
6134;BME280;3098;42.678;23.364;2024-03-02T02:11:17;94390.69;;;6.45;80.09
6134;BME280;3098;42.678;23.364;2024-03-02T02:13:43;94385.66;;;6.49;79.72
6134;BME280;3098;42.678;23.364;2024-03-02T02:16:10;94386.06;;;6.42;80.81
6134;BME280;3098;42.678;23.364;2024-03-02T02:18:36;94389.94;;;6.45;80.57
6134;BME280;3098;42.678;23.364;2024-03-02T02:21:02;94381.66;;;6.38;80.36
6134;BME280;3098;42.678;23.364;2024-03-02T02:23:28;94380.31;;;6.40;80.89
6134;BME280;3098;42.678;23.364;2024-03-02T02:25:54;94385.66;;;6.35;80.67
6134;BME280;3098;42.678;23.364;2024-03-02T02:28:20;94373.78;;;6.38;80.98
6134;BME280;3098;42.678;23.364;2024-03-02T02:30:46;94370.09;;;6.39;80.39
6134;BME280;3098;42.678;23.364;2024-03-02T02:33:11;94375.56;;;6.42;81.12
6134;BME280;3098;42.678;23.364;2024-03-02T02:35:37;94376.41;;;6.38;80.74
6134;BME280;3098;42.678;23.364;2024-03-02T02:38:03;94374.84;;;6.37;80.71
6134;BME280;3098;42.678;23.364;2024-03-02T02:40:29;94373.31;;;6.36;80.87
6134;BME280;3098;42.678;23.364;2024-03-02T02:42:58;94377.78;;;6.35;81.18
6134;BME280;3098;42.678;23.364;2024-03-02T02:45:27;94367.56;;;6.34;81.37
6134;BME280;3098;42.678;23.364;2024-03-02T02:47:52;94372.31;;;6.32;80.60
6134;BME280;3098;42.678;23.364;2024-03-02T02:50:18;94373.88;;;6.33;81.21
6134;BME280;3098;42.678;23.364;2024-03-02T02:52:43;94375.53;;;6.29;81.18
6134;BME280;3098;42.678;23.364;2024-03-02T02:55:11;94385.44;;;6.32;81.35
6134;BME280;3098;42.678;23.364;2024-03-02T02:57:38;94380.41;;;6.35;81.24
6134;BME280;3098;42.678;23.364;2024-03-02T03:00:09;94377.28;;;6.33;81.61
6134;BME280;3098;42.678;23.364;2024-03-02T03:02:38;94378.81;;;6.34;80.98
6134;BME280;3098;42.678;23.364;2024-03-02T03:05:13;94385.56;;;6.40;81.61
6134;BME280;3098;42.678;23.364;2024-03-02T03:07:40;94380.19;;;6.45;81.21
6134;BME280;3098;42.678;23.364;2024-03-02T03:10:06;94369.31;;;6.38;81.05
6134;BME280;3098;42.678;23.364;2024-03-02T03:12:33;94378.06;;;6.34;80.92
6134;BME280;3098;42.678;23.364;2024-03-02T03:14:59;94386.13;;;6.37;80.71
6134;BME280;3098;42.678;23.364;2024-03-02T03:17:26;94386.69;;;6.34;81.77
6134;BME280;3098;42.678;23.364;2024-03-02T03:19:52;94378.63;;;6.31;81.79
6134;BME280;3098;42.678;23.364;2024-03-02T03:22:18;94375.22;;;6.30;81.68
6134;BME280;3098;42.678;23.364;2024-03-02T03:24:43;94381.25;;;6.31;82.16
6134;BME280;3098;42.678;23.364;2024-03-02T03:27:09;94380.59;;;6.25;82.20
6134;BME280;3098;42.678;23.364;2024-03-02T03:29:37;94382.81;;;6.32;81.86
6134;BME280;3098;42.678;23.364;2024-03-02T03:32:02;94381.16;;;6.22;81.99
6134;BME280;3098;42.678;23.364;2024-03-02T03:34:32;94377.34;;;6.28;81.92
6134;BME280;3098;42.678;23.364;2024-03-02T03:36:58;94381.44;;;6.34;81.16
6134;BME280;3098;42.678;23.364;2024-03-02T03:39:23;94378.63;;;6.31;82.20
6134;BME280;3098;42.678;23.364;2024-03-02T03:41:48;94387.19;;;6.22;81.83
6134;BME280;3098;42.678;23.364;2024-03-02T03:44:14;94385.84;;;6.25;81.65
6134;BME280;3098;42.678;23.364;2024-03-02T03:46:39;94376.97;;;6.21;82.05
6134;BME280;3098;42.678;23.364;2024-03-02T03:49:05;94375.22;;;6.16;82.48
6134;BME280;3098;42.678;23.364;2024-03-02T03:51:30;94387.19;;;6.22;82.63
6134;BME280;3098;42.678;23.364;2024-03-02T03:53:56;94378.59;;;6.17;82.03
6134;BME280;3098;42.678;23.364;2024-03-02T03:56:21;94372.88;;;6.15;81.95
6134;BME280;3098;42.678;23.364;2024-03-02T03:58:47;94379.88;;;6.19;81.54
6134;BME280;3098;42.678;23.364;2024-03-02T04:01:13;94377.06;;;6.16;82.58
6134;BME280;3098;42.678;23.364;2024-03-02T04:03:38;94380.19;;;6.18;81.96
6134;BME280;3098;42.678;23.364;2024-03-02T04:06:04;94376.09;;;6.12;82.36
6134;BME280;3098;42.678;23.364;2024-03-02T04:08:29;94367.63;;;6.15;82.12
6134;BME280;3098;42.678;23.364;2024-03-02T04:10:55;94383.38;;;6.15;83.32
6134;BME280;3098;42.678;23.364;2024-03-02T04:13:21;94378.81;;;6.20;83.11
6134;BME280;3098;42.678;23.364;2024-03-02T04:15:46;94374.34;;;6.21;82.94
6134;BME280;3098;42.678;23.364;2024-03-02T04:18:12;94380.44;;;6.16;82.92
6134;BME280;3098;42.678;23.364;2024-03-02T04:20:38;94372.31;;;6.18;82.98
6134;BME280;3098;42.678;23.364;2024-03-02T04:23:03;94385.22;;;6.28;83.08
6134;BME280;3098;42.678;23.364;2024-03-02T04:25:29;94372.81;;;6.34;82.62
6134;BME280;3098;42.678;23.364;2024-03-02T04:27:55;94375.22;;;6.30;82.13
6134;BME280;3098;42.678;23.364;2024-03-02T04:30:20;94385.06;;;6.38;81.55
6134;BME280;3098;42.678;23.364;2024-03-02T04:32:46;94374.25;;;6.26;81.61
6134;BME280;3098;42.678;23.364;2024-03-02T04:35:12;94379.50;;;6.26;82.35
6134;BME280;3098;42.678;23.364;2024-03-02T04:37:38;94384.66;;;6.31;82.25
6134;BME280;3098;42.678;23.364;2024-03-02T04:40:04;94384.28;;;6.38;82.03
6134;BME280;3098;42.678;23.364;2024-03-02T04:42:33;94384.75;;;6.26;83.15
6134;BME280;3098;42.678;23.364;2024-03-02T04:44:59;94385.72;;;6.30;82.70
6134;BME280;3098;42.678;23.364;2024-03-02T04:47:24;94393.00;;;6.19;84.17
6134;BME280;3098;42.678;23.364;2024-03-02T04:49:50;94388.91;;;6.13;84.18
6134;BME280;3098;42.678;23.364;2024-03-02T04:52:15;94388.44;;;6.11;84.54
6134;BME280;3098;42.678;23.364;2024-03-02T04:54:41;94390.84;;;6.08;85.01
6134;BME280;3098;42.678;23.364;2024-03-02T04:57:25;94401.19;;;5.99;85.65
6134;BME280;3098;42.678;23.364;2024-03-02T04:59:50;94398.56;;;5.99;85.79
6134;BME280;3098;42.678;23.364;2024-03-02T05:02:16;94397.50;;;6.00;87.04
6134;BME280;3098;42.678;23.364;2024-03-02T05:04:41;94392.97;;;6.06;86.24
6134;BME280;3098;42.678;23.364;2024-03-02T05:07:07;94397.06;;;6.12;85.08
6134;BME280;3098;42.678;23.364;2024-03-02T05:09:32;94406.78;;;6.11;86.10
6134;BME280;3098;42.678;23.364;2024-03-02T05:11:58;94397.72;;;6.04;85.59
6134;BME280;3098;42.678;23.364;2024-03-02T05:14:43;94409.28;;;6.03;86.37
6134;BME280;3098;42.678;23.364;2024-03-02T05:17:08;94409.41;;;6.11;86.07
6134;BME280;3098;42.678;23.364;2024-03-02T05:19:34;94407.84;;;6.10;86.37
6134;BME280;3098;42.678;23.364;2024-03-02T05:21:59;94414.94;;;6.10;86.60
6134;BME280;3098;42.678;23.364;2024-03-02T05:24:25;94411.63;;;6.04;86.62
6134;BME280;3098;42.678;23.364;2024-03-02T05:26:54;94414.25;;;6.04;87.06
6134;BME280;3098;42.678;23.364;2024-03-02T05:29:19;94420.84;;;6.02;86.91
6134;BME280;3098;42.678;23.364;2024-03-02T05:31:45;94411.69;;;5.99;87.06
6134;BME280;3098;42.678;23.364;2024-03-02T05:34:11;94422.38;;;6.03;86.52
6134;BME280;3098;42.678;23.364;2024-03-02T05:36:36;94434.38;;;6.09;86.18
6134;BME280;3098;42.678;23.364;2024-03-02T05:39:04;94438.69;;;6.18;86.56
6134;BME280;3098;42.678;23.364;2024-03-02T05:41:31;94420.75;;;6.07;86.88
6134;BME280;3098;42.678;23.364;2024-03-02T05:43:56;94430.56;;;6.01;86.52
6134;BME280;3098;42.678;23.364;2024-03-02T05:46:22;94433.59;;;6.08;87.11
6134;BME280;3098;42.678;23.364;2024-03-02T05:48:48;94442.06;;;6.19;86.48
6134;BME280;3098;42.678;23.364;2024-03-02T05:51:13;94425.91;;;6.12;86.08
6134;BME280;3098;42.678;23.364;2024-03-02T05:53:39;94440.53;;;6.18;86.00
6134;BME280;3098;42.678;23.364;2024-03-02T05:56:05;94443.91;;;6.18;86.72
6134;BME280;3098;42.678;23.364;2024-03-02T05:58:31;94442.13;;;6.14;86.85
6134;BME280;3098;42.678;23.364;2024-03-02T06:01:18;94440.03;;;6.16;87.53
6134;BME280;3098;42.678;23.364;2024-03-02T06:03:44;94448.19;;;6.28;86.58
6134;BME280;3098;42.678;23.364;2024-03-02T06:06:09;94439.19;;;6.34;86.63
6134;BME280;3098;42.678;23.364;2024-03-02T06:08:35;94442.09;;;6.33;87.00
6134;BME280;3098;42.678;23.364;2024-03-02T06:11:01;94441.59;;;6.31;87.28
6134;BME280;3098;42.678;23.364;2024-03-02T06:13:27;94446.84;;;6.31;87.50
6134;BME280;3098;42.678;23.364;2024-03-02T06:15:52;94439.25;;;6.15;87.44
6134;BME280;3098;42.678;23.364;2024-03-02T06:18:18;94445.38;;;6.25;87.64
6134;BME280;3098;42.678;23.364;2024-03-02T06:20:44;94434.59;;;6.26;87.28
6134;BME280;3098;42.678;23.364;2024-03-02T06:23:09;94440.63;;;6.27;87.69
6134;BME280;3098;42.678;23.364;2024-03-02T06:25:35;94446.19;;;6.25;87.19
6134;BME280;3098;42.678;23.364;2024-03-02T06:28:01;94449.94;;;6.19;87.77
6134;BME280;3098;42.678;23.364;2024-03-02T06:30:26;94451.59;;;6.15;87.50
6134;BME280;3098;42.678;23.364;2024-03-02T06:32:52;94448.25;;;6.09;88.17
6134;BME280;3098;42.678;23.364;2024-03-02T06:35:18;94448.97;;;6.15;87.96
6134;BME280;3098;42.678;23.364;2024-03-02T06:37:43;94457.09;;;6.13;87.67
6134;BME280;3098;42.678;23.364;2024-03-02T06:40:09;94447.34;;;6.00;87.80
6134;BME280;3098;42.678;23.364;2024-03-02T06:42:35;94462.72;;;6.07;87.89
6134;BME280;3098;42.678;23.364;2024-03-02T06:45:02;94451.44;;;6.06;87.70
6134;BME280;3098;42.678;23.364;2024-03-02T06:47:28;94455.72;;;6.02;87.30
6134;BME280;3098;42.678;23.364;2024-03-02T06:49:53;94457.25;;;6.03;88.17
6134;BME280;3098;42.678;23.364;2024-03-02T06:52:19;94456.78;;;6.01;88.28
6134;BME280;3098;42.678;23.364;2024-03-02T06:54:46;94458.22;;;5.93;88.13
6134;BME280;3098;42.678;23.364;2024-03-02T06:57:12;94463.28;;;6.04;88.60
6134;BME280;3098;42.678;23.364;2024-03-02T06:59:37;94460.59;;;6.09;88.58
6134;BME280;3098;42.678;23.364;2024-03-02T07:02:03;94451.59;;;5.96;88.32
6134;BME280;3098;42.678;23.364;2024-03-02T07:04:28;94465.75;;;6.14;88.25
6134;BME280;3098;42.678;23.364;2024-03-02T07:06:54;94466.75;;;6.18;87.49
6134;BME280;3098;42.678;23.364;2024-03-02T07:09:20;94464.81;;;6.24;87.70
6134;BME280;3098;42.678;23.364;2024-03-02T07:11:48;94472.13;;;6.27;87.77
6134;BME280;3098;42.678;23.364;2024-03-02T07:14:14;94479.69;;;6.28;87.65
6134;BME280;3098;42.678;23.364;2024-03-02T07:16:40;94472.31;;;6.30;87.98
6134;BME280;3098;42.678;23.364;2024-03-02T07:19:09;94472.22;;;6.21;87.82
6134;BME280;3098;42.678;23.364;2024-03-02T07:21:35;94474.13;;;6.16;87.46
6134;BME280;3098;42.678;23.364;2024-03-02T07:24:00;94473.81;;;6.17;87.45
6134;BME280;3098;42.678;23.364;2024-03-02T07:26:29;94480.44;;;6.15;87.27
6134;BME280;3098;42.678;23.364;2024-03-02T07:28:57;94480.88;;;6.03;87.46
6134;BME280;3098;42.678;23.364;2024-03-02T07:31:22;94478.44;;;6.07;87.93
6134;BME280;3098;42.678;23.364;2024-03-02T07:33:48;94477.75;;;6.01;87.54
6134;BME280;3098;42.678;23.364;2024-03-02T07:36:13;94482.16;;;6.06;87.99
6134;BME280;3098;42.678;23.364;2024-03-02T07:38:39;94478.19;;;6.08;87.67
6134;BME280;3098;42.678;23.364;2024-03-02T07:41:05;94479.47;;;6.11;88.23
6134;BME280;3098;42.678;23.364;2024-03-02T07:43:31;94483.84;;;6.15;88.30
6134;BME280;3098;42.678;23.364;2024-03-02T07:45:58;94493.47;;;6.20;88.32
6134;BME280;3098;42.678;23.364;2024-03-02T07:48:24;94484.53;;;6.21;87.82
6134;BME280;3098;42.678;23.364;2024-03-02T07:50:50;94487.44;;;6.19;88.03
6134;BME280;3098;42.678;23.364;2024-03-02T07:53:17;94486.38;;;6.20;88.04
6134;BME280;3098;42.678;23.364;2024-03-02T07:55:43;94484.94;;;6.28;87.58
6134;BME280;3098;42.678;23.364;2024-03-02T07:58:09;94490.69;;;6.30;87.75
6134;BME280;3098;42.678;23.364;2024-03-02T08:00:39;94486.00;;;6.27;87.98
6134;BME280;3098;42.678;23.364;2024-03-02T08:03:06;94493.72;;;6.37;87.58
6134;BME280;3098;42.678;23.364;2024-03-02T08:05:33;94495.78;;;6.40;87.48
6134;BME280;3098;42.678;23.364;2024-03-02T08:07:58;94496.72;;;6.31;87.77
6134;BME280;3098;42.678;23.364;2024-03-02T08:10:24;94500.69;;;6.28;87.15
6134;BME280;3098;42.678;23.364;2024-03-02T08:12:50;94503.25;;;6.33;87.03
6134;BME280;3098;42.678;23.364;2024-03-02T08:15:15;94495.47;;;6.42;87.42
6134;BME280;3098;42.678;23.364;2024-03-02T08:17:41;94496.38;;;6.51;87.08
6134;BME280;3098;42.678;23.364;2024-03-02T08:20:11;94503.84;;;6.44;86.72
6134;BME280;3098;42.678;23.364;2024-03-02T08:22:37;94501.06;;;6.54;87.18
6134;BME280;3098;42.678;23.364;2024-03-02T08:25:03;94505.06;;;6.65;86.45
6134;BME280;3098;42.678;23.364;2024-03-02T08:27:31;94499.56;;;6.67;85.82
6134;BME280;3098;42.678;23.364;2024-03-02T08:29:57;94506.59;;;6.85;85.69
6134;BME280;3098;42.678;23.364;2024-03-02T08:32:23;94505.41;;;6.78;86.53
6134;BME280;3098;42.678;23.364;2024-03-02T08:34:48;94505.41;;;6.78;85.99
6134;BME280;3098;42.678;23.364;2024-03-02T08:37:13;94507.75;;;6.93;85.79
6134;BME280;3098;42.678;23.364;2024-03-02T08:39:39;94492.38;;;7.00;85.45
6134;BME280;3098;42.678;23.364;2024-03-02T08:42:05;94497.53;;;7.19;85.35
6134;BME280;3098;42.678;23.364;2024-03-02T08:44:30;94504.56;;;7.24;85.15
6134;BME280;3098;42.678;23.364;2024-03-02T08:46:56;94503.09;;;7.45;84.35
6134;BME280;3098;42.678;23.364;2024-03-02T08:49:22;94499.19;;;7.43;83.75
6134;BME280;3098;42.678;23.364;2024-03-02T08:51:47;94507.78;;;7.48;83.27
6134;BME280;3098;42.678;23.364;2024-03-02T08:54:21;94501.88;;;7.65;82.37
6134;BME280;3098;42.678;23.364;2024-03-02T08:56:50;94501.41;;;7.77;81.25
6134;BME280;3098;42.678;23.364;2024-03-02T08:59:16;94500.44;;;7.73;81.30
6134;BME280;3098;42.678;23.364;2024-03-02T09:01:42;94502.50;;;7.98;80.79
6134;BME280;3098;42.678;23.364;2024-03-02T09:04:08;94499.50;;;7.91;81.13
6134;BME280;3098;42.678;23.364;2024-03-02T09:06:34;94508.91;;;8.06;79.53
6134;BME280;3098;42.678;23.364;2024-03-02T09:09:00;94504.31;;;8.11;79.28
6134;BME280;3098;42.678;23.364;2024-03-02T09:11:26;94506.53;;;8.18;80.38
6134;BME280;3098;42.678;23.364;2024-03-02T09:13:52;94506.22;;;8.20;79.04
6134;BME280;3098;42.678;23.364;2024-03-02T09:16:19;94510.84;;;8.36;78.19
6134;BME280;3098;42.678;23.364;2024-03-02T09:18:44;94518.19;;;8.40;77.97
6134;BME280;3098;42.678;23.364;2024-03-02T09:21:10;94506.38;;;8.59;77.17
6134;BME280;3098;42.678;23.364;2024-03-02T09:23:36;94519.25;;;8.61;76.86
6134;BME280;3098;42.678;23.364;2024-03-02T09:26:02;94524.38;;;8.66;76.32
6134;BME280;3098;42.678;23.364;2024-03-02T09:28:28;94517.59;;;8.43;76.77
6134;BME280;3098;42.678;23.364;2024-03-02T09:30:54;94516.63;;;8.25;77.67
6134;BME280;3098;42.678;23.364;2024-03-02T09:33:20;94525.09;;;8.35;78.92
6134;BME280;3098;42.678;23.364;2024-03-02T09:35:46;94516.34;;;8.40;77.20
6134;BME280;3098;42.678;23.364;2024-03-02T09:38:15;94512.94;;;8.26;78.15
6134;BME280;3098;42.678;23.364;2024-03-02T09:40:41;94521.31;;;8.28;77.95
6134;BME280;3098;42.678;23.364;2024-03-02T09:43:07;94521.66;;;8.12;78.29
6134;BME280;3098;42.678;23.364;2024-03-02T09:45:33;94518.34;;;8.07;79.06
6134;BME280;3098;42.678;23.364;2024-03-02T09:47:59;94522.00;;;7.97;79.42
6134;BME280;3098;42.678;23.364;2024-03-02T09:50:25;94527.66;;;7.91;80.35
6134;BME280;3098;42.678;23.364;2024-03-02T09:52:52;94519.19;;;7.94;80.46
6134;BME280;3098;42.678;23.364;2024-03-02T09:55:20;94520.91;;;7.98;80.62
6134;BME280;3098;42.678;23.364;2024-03-02T09:57:46;94524.88;;;8.09;80.88
6134;BME280;3098;42.678;23.364;2024-03-02T10:00:14;94525.50;;;8.29;80.09
6134;BME280;3098;42.678;23.364;2024-03-02T10:02:43;94515.34;;;8.36;78.80
6134;BME280;3098;42.678;23.364;2024-03-02T10:05:09;94528.50;;;8.36;79.03
6134;BME280;3098;42.678;23.364;2024-03-02T10:07:35;94530.59;;;8.25;79.19
6134;BME280;3098;42.678;23.364;2024-03-02T10:10:14;94523.75;;;8.24;78.56
6134;BME280;3098;42.678;23.364;2024-03-02T10:12:40;94526.47;;;8.33;79.97
6134;BME280;3098;42.678;23.364;2024-03-02T10:15:08;94518.81;;;8.23;78.91
6134;BME280;3098;42.678;23.364;2024-03-02T10:17:35;94529.28;;;8.36;79.52
6134;BME280;3098;42.678;23.364;2024-03-02T10:22:49;94519.53;;;8.37;78.07
6134;BME280;3098;42.678;23.364;2024-03-02T10:25:31;94521.22;;;8.55;79.29
6134;BME280;3098;42.678;23.364;2024-03-02T10:28:00;94520.63;;;8.58;77.97
6134;BME280;3098;42.678;23.364;2024-03-02T10:30:27;94520.97;;;8.66;79.37
6134;BME280;3098;42.678;23.364;2024-03-02T10:32:54;94525.50;;;8.74;77.89
6134;BME280;3098;42.678;23.364;2024-03-02T10:35:22;94522.25;;;8.68;77.36
6134;BME280;3098;42.678;23.364;2024-03-02T10:37:54;94516.44;;;8.57;77.39
6134;BME280;3098;42.678;23.364;2024-03-02T10:40:23;94521.09;;;8.38;79.09
6134;BME280;3098;42.678;23.364;2024-03-02T10:42:52;94516.34;;;8.26;78.19
6134;BME280;3098;42.678;23.364;2024-03-02T10:45:19;94516.72;;;8.33;80.23
6134;BME280;3098;42.678;23.364;2024-03-02T10:47:49;94509.59;;;8.34;79.04
6134;BME280;3098;42.678;23.364;2024-03-02T10:50:15;94516.63;;;8.25;79.11
6134;BME280;3098;42.678;23.364;2024-03-02T10:52:41;94507.13;;;8.15;79.71
6134;BME280;3098;42.678;23.364;2024-03-02T10:55:08;94509.28;;;8.13;80.02
6134;BME280;3098;42.678;23.364;2024-03-02T10:57:54;94509.91;;;8.32;79.17
6134;BME280;3098;42.678;23.364;2024-03-02T11:00:24;94509.72;;;8.29;80.14
6134;BME280;3098;42.678;23.364;2024-03-02T11:03:04;94504.16;;;8.30;79.53
6134;BME280;3098;42.678;23.364;2024-03-02T11:05:36;94501.09;;;8.37;80.27
6134;BME280;3098;42.678;23.364;2024-03-02T11:08:08;94511.41;;;8.47;80.92
6134;BME280;3098;42.678;23.364;2024-03-02T11:10:36;94505.06;;;8.26;81.00
6134;BME280;3098;42.678;23.364;2024-03-02T11:13:05;94506.75;;;8.44;80.38
6134;BME280;3098;42.678;23.364;2024-03-02T11:15:35;94492.44;;;8.36;79.60
6134;BME280;3098;42.678;23.364;2024-03-02T11:18:04;94498.53;;;8.46;79.63
6134;BME280;3098;42.678;23.364;2024-03-02T11:20:36;94498.44;;;8.51;79.59
6134;BME280;3098;42.678;23.364;2024-03-02T11:23:07;94501.41;;;8.58;78.02
6134;BME280;3098;42.678;23.364;2024-03-02T11:25:33;94498.44;;;8.51;79.03
6134;BME280;3098;42.678;23.364;2024-03-02T11:28:00;94504.38;;;8.56;79.59
6134;BME280;3098;42.678;23.364;2024-03-02T11:33:01;94496.56;;;8.51;79.16
6134;BME280;3098;42.678;23.364;2024-03-02T11:35:45;94499.75;;;8.40;78.74
6134;BME280;3098;42.678;23.364;2024-03-02T11:38:12;94495.97;;;8.32;79.75
6134;BME280;3098;42.678;23.364;2024-03-02T11:40:41;94493.75;;;8.25;80.87
6134;BME280;3098;42.678;23.364;2024-03-02T11:43:07;94496.47;;;8.20;80.42
6134;BME280;3098;42.678;23.364;2024-03-02T11:45:35;94493.44;;;8.27;79.70
6134;BME280;3098;42.678;23.364;2024-03-02T11:48:06;94492.16;;;8.24;79.83
6134;BME280;3098;42.678;23.364;2024-03-02T11:50:35;94499.66;;;8.31;80.72
6134;BME280;3098;42.678;23.364;2024-03-02T11:53:05;94503.72;;;8.37;80.24
6134;BME280;3098;42.678;23.364;2024-03-02T11:55:37;94494.00;;;8.38;78.50
6134;BME280;3098;42.678;23.364;2024-03-02T11:58:07;94500.53;;;8.40;79.30
6134;BME280;3098;42.678;23.364;2024-03-02T12:00:33;94500.16;;;8.33;78.77
6134;BME280;3098;42.678;23.364;2024-03-02T12:03:05;94504.59;;;8.46;78.63
6134;BME280;3098;42.678;23.364;2024-03-02T12:05:31;94503.22;;;8.49;77.83
6134;BME280;3098;42.678;23.364;2024-03-02T12:08:02;94490.13;;;8.57;76.72
6134;BME280;3098;42.678;23.364;2024-03-02T12:10:32;94492.53;;;8.76;76.37
6134;BME280;3098;42.678;23.364;2024-03-02T12:12:59;94494.16;;;8.95;76.82
6134;BME280;3098;42.678;23.364;2024-03-02T12:15:26;94488.34;;;9.06;76.53
6134;BME280;3098;42.678;23.364;2024-03-02T12:17:56;94496.16;;;9.20;76.97
6134;BME280;3098;42.678;23.364;2024-03-02T12:20:22;94494.63;;;9.37;75.33
6134;BME280;3098;42.678;23.364;2024-03-02T12:22:52;94505.91;;;9.20;75.77
6134;BME280;3098;42.678;23.364;2024-03-02T12:25:22;94497.38;;;9.23;74.91
6134;BME280;3098;42.678;23.364;2024-03-02T12:27:53;94487.31;;;9.25;74.10
6134;BME280;3098;42.678;23.364;2024-03-02T12:30:20;94497.34;;;9.14;72.56
6134;BME280;3098;42.678;23.364;2024-03-02T12:32:47;94492.00;;;8.97;73.95
6134;BME280;3098;42.678;23.364;2024-03-02T12:35:14;94486.00;;;8.74;74.58
6134;BME280;3098;42.678;23.364;2024-03-02T12:37:49;94499.25;;;8.91;75.47
6134;BME280;3098;42.678;23.364;2024-03-02T12:40:19;94506.19;;;9.10;74.72
6134;BME280;3098;42.678;23.364;2024-03-02T12:42:46;94483.06;;;9.06;74.48
6134;BME280;3098;42.678;23.364;2024-03-02T12:45:13;94489.06;;;8.98;73.74
6134;BME280;3098;42.678;23.364;2024-03-02T12:47:45;94481.78;;;8.95;75.02
6134;BME280;3098;42.678;23.364;2024-03-02T12:50:13;94494.38;;;9.07;74.25
6134;BME280;3098;42.678;23.364;2024-03-02T12:52:42;94492.25;;;9.09;73.58
6134;BME280;3098;42.678;23.364;2024-03-02T12:55:08;94498.97;;;9.32;71.99
6134;BME280;3098;42.678;23.364;2024-03-02T12:57:39;94502.28;;;9.47;71.63
6134;BME280;3098;42.678;23.364;2024-03-02T13:00:05;94493.63;;;9.55;71.65
6134;BME280;3098;42.678;23.364;2024-03-02T13:02:39;94500.78;;;9.80;71.60
6134;BME280;3098;42.678;23.364;2024-03-02T13:05:06;94498.59;;;9.65;70.57
6134;BME280;3098;42.678;23.364;2024-03-02T13:07:37;94501.25;;;9.65;71.82
6134;BME280;3098;42.678;23.364;2024-03-02T13:10:04;94502.09;;;9.43;71.77
6134;BME280;3098;42.678;23.364;2024-03-02T13:12:32;94501.25;;;9.65;70.93
6134;BME280;3098;42.678;23.364;2024-03-02T13:14:58;94492.38;;;9.52;70.54
6134;BME280;3098;42.678;23.364;2024-03-02T13:17:24;94495.44;;;9.37;72.26
6134;BME280;3098;42.678;23.364;2024-03-02T13:19:55;94495.25;;;9.33;72.01
6134;BME280;3098;42.678;23.364;2024-03-02T13:22:21;94506.81;;;9.55;71.29
6134;BME280;3098;42.678;23.364;2024-03-02T13:24:47;94499.38;;;9.66;71.08
6134;BME280;3098;42.678;23.364;2024-03-02T13:27:13;94503.13;;;9.82;71.63
6134;BME280;3098;42.678;23.364;2024-03-02T13:29:39;94508.41;;;9.99;69.75